sensor_id;sensor_type;location;lat;lon;timestamp;pressure;altitude;pressure_sealevel;temperature;humidity
53300;BME280;39187;48.476;8.310;2023-03-14T00:01:23;89767.81;;;6.53;100.00
53300;BME280;39187;48.476;8.310;2023-03-14T00:03:49;89757.97;;;6.66;100.00
53300;BME280;39187;48.476;8.310;2023-03-14T00:06:16;89766.56;;;6.45;100.00
53300;BME280;39187;48.476;8.310;2023-03-14T00:08:43;89762.75;;;6.46;100.00
53300;BME280;39187;48.476;8.310;2023-03-14T00:11:12;89770.69;;;6.59;100.00
53300;BME280;39187;48.476;8.310;2023-03-14T00:13:38;89779.66;;;6.36;100.00
53300;BME280;39187;48.476;8.310;2023-03-14T00:16:13;89766.09;;;6.21;100.00
53300;BME280;39187;48.476;8.310;2023-03-14T00:18:39;89753.03;;;6.30;100.00
53300;BME280;39187;48.476;8.310;2023-03-14T00:21:07;89751.84;;;6.06;100.00
53300;BME280;39187;48.476;8.310;2023-03-14T00:23:34;89749.41;;;6.24;100.00
53300;BME280;39187;48.476;8.310;2023-03-14T00:26:20;89759.22;;;5.98;100.00
53300;BME280;39187;48.476;8.310;2023-03-14T00:28:46;89769.91;;;6.08;100.00
53300;BME280;39187;48.476;8.310;2023-03-14T00:31:14;89778.28;;;6.31;100.00
53300;BME280;39187;48.476;8.310;2023-03-14T00:33:41;89780.81;;;6.35;100.00
53300;BME280;39187;48.476;8.310;2023-03-14T00:36:13;89784.59;;;6.21;100.00
53300;BME280;39187;48.476;8.310;2023-03-14T00:38:41;89789.00;;;5.99;100.00
53300;BME280;39187;48.476;8.310;2023-03-14T00:41:09;89807.25;;;5.93;100.00
53300;BME280;39187;48.476;8.310;2023-03-14T00:43:35;89800.09;;;5.94;100.00
53300;BME280;39187;48.476;8.310;2023-03-14T00:46:01;89799.03;;;6.04;100.00
53300;BME280;39187;48.476;8.310;2023-03-14T00:48:27;89796.91;;;5.99;100.00
53300;BME280;39187;48.476;8.310;2023-03-14T00:50:53;89793.16;;;6.13;100.00
53300;BME280;39187;48.476;8.310;2023-03-14T00:53:18;89782.56;;;6.00;100.00
53300;BME280;39187;48.476;8.310;2023-03-14T00:55:44;89782.13;;;5.89;100.00
53300;BME280;39187;48.476;8.310;2023-03-14T00:58:12;89781.50;;;5.97;100.00
53300;BME280;39187;48.476;8.310;2023-03-14T01:00:38;89778.16;;;5.81;100.00
53300;BME280;39187;48.476;8.310;2023-03-14T01:03:04;89781.94;;;5.80;100.00
53300;BME280;39187;48.476;8.310;2023-03-14T01:05:30;89778.91;;;5.81;100.00
53300;BME280;39187;48.476;8.310;2023-03-14T01:07:56;89766.44;;;5.82;100.00
53300;BME280;39187;48.476;8.310;2023-03-14T01:10:22;89749.69;;;5.59;100.00
53300;BME280;39187;48.476;8.310;2023-03-14T01:12:47;89740.69;;;5.57;100.00
53300;BME280;39187;48.476;8.310;2023-03-14T01:15:14;89742.91;;;5.58;100.00
53300;BME280;39187;48.476;8.310;2023-03-14T01:17:39;89738.06;;;5.57;100.00
53300;BME280;39187;48.476;8.310;2023-03-14T01:20:06;89723.47;;;5.52;100.00
53300;BME280;39187;48.476;8.310;2023-03-14T01:22:35;89726.13;;;5.52;100.00
53300;BME280;39187;48.476;8.310;2023-03-14T01:25:01;89722.03;;;5.64;100.00
53300;BME280;39187;48.476;8.310;2023-03-14T01:27:26;89705.66;;;5.56;100.00
53300;BME280;39187;48.476;8.310;2023-03-14T01:29:52;89720.09;;;5.52;100.00
53300;BME280;39187;48.476;8.310;2023-03-14T01:32:18;89707.66;;;5.52;100.00
53300;BME280;39187;48.476;8.310;2023-03-14T01:34:43;89716.19;;;5.44;100.00
53300;BME280;39187;48.476;8.310;2023-03-14T01:37:09;89727.56;;;5.41;100.00
53300;BME280;39187;48.476;8.310;2023-03-14T01:39:37;89712.09;;;5.27;100.00
53300;BME280;39187;48.476;8.310;2023-03-14T01:42:03;89727.38;;;5.48;100.00
53300;BME280;39187;48.476;8.310;2023-03-14T01:44:49;89713.50;;;5.31;100.00
53300;BME280;39187;48.476;8.310;2023-03-14T01:47:15;89716.03;;;5.35;100.00
53300;BME280;39187;48.476;8.310;2023-03-14T01:49:40;89694.25;;;5.18;100.00
53300;BME280;39187;48.476;8.310;2023-03-14T01:52:21;89717.38;;;5.27;100.00
53300;BME280;39187;48.476;8.310;2023-03-14T01:55:27;89711.34;;;5.26;100.00
53300;BME280;39187;48.476;8.310;2023-03-14T01:57:48;89701.38;;;5.34;100.00
53300;BME280;39187;48.476;8.310;2023-03-14T02:00:18;89703.72;;;5.15;100.00
53300;BME280;39187;48.476;8.310;2023-03-14T02:03:02;89702.56;;;5.16;100.00
53300;BME280;39187;48.476;8.310;2023-03-14T02:05:32;89695.00;;;5.18;100.00
53300;BME280;39187;48.476;8.310;2023-03-14T02:08:01;89698.63;;;5.08;100.00
53300;BME280;39187;48.476;8.310;2023-03-14T02:10:30;89716.56;;;5.13;100.00
53300;BME280;39187;48.476;8.310;2023-03-14T02:13:00;89708.25;;;5.15;100.00
53300;BME280;39187;48.476;8.310;2023-03-14T02:15:26;89718.53;;;5.25;100.00
53300;BME280;39187;48.476;8.310;2023-03-14T02:17:52;89708.50;;;5.20;100.00
53300;BME280;39187;48.476;8.310;2023-03-14T02:20:34;89712.28;;;5.19;100.00
53300;BME280;39187;48.476;8.310;2023-03-14T02:23:03;89707.19;;;5.12;100.00
53300;BME280;39187;48.476;8.310;2023-03-14T02:25:41;89704.88;;;5.14;100.00
53300;BME280;39187;48.476;8.310;2023-03-14T02:28:09;89710.25;;;5.11;100.00
53300;BME280;39187;48.476;8.310;2023-03-14T02:30:35;89705.16;;;5.04;100.00
53300;BME280;39187;48.476;8.310;2023-03-14T02:33:16;89713.75;;;5.20;100.00
53300;BME280;39187;48.476;8.310;2023-03-14T02:40:49;89666.00;;;5.18;100.00
53300;BME280;39187;48.476;8.310;2023-03-14T02:43:15;89676.91;;;5.04;100.00
53300;BME280;39187;48.476;8.310;2023-03-14T02:45:48;89689.19;;;4.95;100.00
53300;BME280;39187;48.476;8.310;2023-03-14T02:48:28;89691.13;;;5.07;100.00
53300;BME280;39187;48.476;8.310;2023-03-14T02:50:57;89686.09;;;5.12;100.00
53300;BME280;39187;48.476;8.310;2023-03-14T02:53:31;89675.94;;;4.98;100.00
53300;BME280;39187;48.476;8.310;2023-03-14T02:55:57;89664.50;;;5.17;100.00
53300;BME280;39187;48.476;8.310;2023-03-14T02:58:23;89650.75;;;5.10;100.00
53300;BME280;39187;48.476;8.310;2023-03-14T03:00:49;89659.63;;;4.87;100.00
53300;BME280;39187;48.476;8.310;2023-03-14T03:03:15;89646.38;;;4.91;100.00
53300;BME280;39187;48.476;8.310;2023-03-14T03:05:40;89636.22;;;4.89;100.00
53300;BME280;39187;48.476;8.310;2023-03-14T03:08:08;89626.72;;;4.79;100.00
53300;BME280;39187;48.476;8.310;2023-03-14T03:10:34;89627.41;;;4.96;100.00
53300;BME280;39187;48.476;8.310;2023-03-14T03:13:00;89618.38;;;4.80;100.00
53300;BME280;39187;48.476;8.310;2023-03-14T03:15:26;89625.47;;;4.83;100.00
53300;BME280;39187;48.476;8.310;2023-03-14T03:17:51;89625.78;;;4.86;100.00
53300;BME280;39187;48.476;8.310;2023-03-14T03:20:17;89621.63;;;4.72;100.00
53300;BME280;39187;48.476;8.310;2023-03-14T03:22:42;89622.78;;;5.12;100.00
53300;BME280;39187;48.476;8.310;2023-03-14T03:25:09;89621.00;;;4.80;100.00
53300;BME280;39187;48.476;8.310;2023-03-14T03:27:36;89604.47;;;4.80;100.00
53300;BME280;39187;48.476;8.310;2023-03-14T03:30:04;89604.56;;;4.76;100.00
53300;BME280;39187;48.476;8.310;2023-03-14T03:32:30;89585.06;;;4.87;100.00
53300;BME280;39187;48.476;8.310;2023-03-14T03:34:56;89597.28;;;4.80;100.00
53300;BME280;39187;48.476;8.310;2023-03-14T03:37:21;89597.16;;;4.71;100.00
53300;BME280;39187;48.476;8.310;2023-03-14T03:39:49;89595.69;;;4.99;100.00
53300;BME280;39187;48.476;8.310;2023-03-14T03:42:14;89580.03;;;4.63;100.00
53300;BME280;39187;48.476;8.310;2023-03-14T03:44:40;89590.31;;;4.74;100.00
53300;BME280;39187;48.476;8.310;2023-03-14T03:47:05;89589.44;;;5.06;100.00
53300;BME280;39187;48.476;8.310;2023-03-14T03:49:31;89585.59;;;4.81;100.00
53300;BME280;39187;48.476;8.310;2023-03-14T03:51:58;89566.31;;;4.84;100.00
53300;BME280;39187;48.476;8.310;2023-03-14T03:54:24;89568.09;;;4.88;100.00
53300;BME280;39187;48.476;8.310;2023-03-14T03:56:50;89570.81;;;4.71;100.00
53300;BME280;39187;48.476;8.310;2023-03-14T03:59:15;89569.78;;;4.81;100.00
53300;BME280;39187;48.476;8.310;2023-03-14T04:01:42;89568.50;;;4.73;100.00
53300;BME280;39187;48.476;8.310;2023-03-14T04:04:07;89567.44;;;4.71;100.00
53300;BME280;39187;48.476;8.310;2023-03-14T04:06:33;89571.19;;;4.86;100.00
53300;BME280;39187;48.476;8.310;2023-03-14T04:08:59;89554.88;;;4.75;100.00
53300;BME280;39187;48.476;8.310;2023-03-14T04:11:24;89564.19;;;4.79;100.00
53300;BME280;39187;48.476;8.310;2023-03-14T04:13:50;89551.06;;;4.63;100.00
53300;BME280;39187;48.476;8.310;2023-03-14T04:16:21;89557.19;;;4.60;100.00
53300;BME280;39187;48.476;8.310;2023-03-14T04:18:47;89535.47;;;4.69;100.00
53300;BME280;39187;48.476;8.310;2023-03-14T04:21:13;89557.03;;;4.80;100.00
53300;BME280;39187;48.476;8.310;2023-03-14T04:23:39;89542.47;;;4.75;100.00
53300;BME280;39187;48.476;8.310;2023-03-14T04:26:05;89542.56;;;4.72;100.00
53300;BME280;39187;48.476;8.310;2023-03-14T04:28:30;89541.38;;;4.60;100.00
53300;BME280;39187;48.476;8.310;2023-03-14T04:30:56;89536.41;;;4.62;100.00
53300;BME280;39187;48.476;8.310;2023-03-14T04:33:22;89531.38;;;4.68;100.00
53300;BME280;39187;48.476;8.310;2023-03-14T04:35:47;89527.03;;;4.61;100.00
53300;BME280;39187;48.476;8.310;2023-03-14T04:38:13;89525.78;;;4.66;100.00
53300;BME280;39187;48.476;8.310;2023-03-14T04:40:40;89514.50;;;4.65;100.00
53300;BME280;39187;48.476;8.310;2023-03-14T04:43:07;89495.13;;;4.72;100.00
53300;BME280;39187;48.476;8.310;2023-03-14T04:45:32;89505.94;;;4.61;100.00
53300;BME280;39187;48.476;8.310;2023-03-14T04:47:58;89517.03;;;4.69;100.00
53300;BME280;39187;48.476;8.310;2023-03-14T04:50:23;89511.97;;;4.74;100.00
53300;BME280;39187;48.476;8.310;2023-03-14T04:52:49;89506.50;;;4.69;100.00
53300;BME280;39187;48.476;8.310;2023-03-14T04:55:15;89499.47;;;4.78;100.00
53300;BME280;39187;48.476;8.310;2023-03-14T04:57:40;89519.31;;;4.96;100.00
53300;BME280;39187;48.476;8.310;2023-03-14T05:00:07;89514.56;;;4.91;100.00
53300;BME280;39187;48.476;8.310;2023-03-14T05:02:33;89505.47;;;4.79;100.00
53300;BME280;39187;48.476;8.310;2023-03-14T05:04:59;89501.16;;;4.85;100.00
53300;BME280;39187;48.476;8.310;2023-03-14T05:07:25;89510.09;;;4.75;100.00
53300;BME280;39187;48.476;8.310;2023-03-14T05:09:50;89486.47;;;4.71;100.00
53300;BME280;39187;48.476;8.310;2023-03-14T05:12:16;89504.50;;;4.60;100.00
53300;BME280;39187;48.476;8.310;2023-03-14T05:14:41;89508.94;;;4.76;100.00
53300;BME280;39187;48.476;8.310;2023-03-14T05:17:07;89508.75;;;4.83;100.00
53300;BME280;39187;48.476;8.310;2023-03-14T05:19:33;89507.56;;;4.71;100.00
53300;BME280;39187;48.476;8.310;2023-03-14T05:21:58;89506.75;;;4.87;100.00
53300;BME280;39187;48.476;8.310;2023-03-14T05:24:24;89497.34;;;4.73;100.00
53300;BME280;39187;48.476;8.310;2023-03-14T05:26:49;89505.47;;;4.79;100.00
53300;BME280;39187;48.476;8.310;2023-03-14T05:29:15;89507.06;;;4.89;100.00
53300;BME280;39187;48.476;8.310;2023-03-14T05:31:40;89498.81;;;4.74;100.00
53300;BME280;39187;48.476;8.310;2023-03-14T05:34:06;89488.50;;;4.80;100.00
53300;BME280;39187;48.476;8.310;2023-03-14T05:36:31;89483.66;;;4.78;100.00
53300;BME280;39187;48.476;8.310;2023-03-14T05:38:57;89474.88;;;4.69;100.00
53300;BME280;39187;48.476;8.310;2023-03-14T05:41:23;89469.00;;;4.90;100.00
53300;BME280;39187;48.476;8.310;2023-03-14T05:43:48;89469.41;;;4.76;100.00
53300;BME280;39187;48.476;8.310;2023-03-14T05:46:14;89452.94;;;4.59;100.00
53300;BME280;39187;48.476;8.310;2023-03-14T05:48:39;89464.13;;;4.76;100.00
53300;BME280;39187;48.476;8.310;2023-03-14T05:51:05;89465.63;;;4.77;100.00
53300;BME280;39187;48.476;8.310;2023-03-14T05:53:31;89440.00;;;4.65;100.00
53300;BME280;39187;48.476;8.310;2023-03-14T05:55:56;89448.41;;;4.60;100.00
53300;BME280;39187;48.476;8.310;2023-03-14T05:58:22;89450.31;;;4.59;100.00
53300;BME280;39187;48.476;8.310;2023-03-14T06:00:48;89455.22;;;4.44;100.00
53300;BME280;39187;48.476;8.310;2023-03-14T06:03:14;89460.59;;;4.41;100.00
53300;BME280;39187;48.476;8.310;2023-03-14T06:05:39;89460.94;;;4.56;100.00
53300;BME280;39187;48.476;8.310;2023-03-14T06:08:05;89461.13;;;4.49;100.00
53300;BME280;39187;48.476;8.310;2023-03-14T06:10:31;89429.53;;;4.49;100.00
53300;BME280;39187;48.476;8.310;2023-03-14T06:12:56;89428.44;;;4.33;100.00
53300;BME280;39187;48.476;8.310;2023-03-14T06:15:22;89431.81;;;4.34;100.00
53300;BME280;39187;48.476;8.310;2023-03-14T06:18:02;89432.59;;;4.47;100.00
53300;BME280;39187;48.476;8.310;2023-03-14T06:20:29;89421.63;;;4.49;100.00
53300;BME280;39187;48.476;8.310;2023-03-14T06:22:54;89414.22;;;4.31;100.00
53300;BME280;39187;48.476;8.310;2023-03-14T06:25:20;89413.78;;;4.32;100.00
53300;BME280;39187;48.476;8.310;2023-03-14T06:27:45;89418.09;;;4.26;100.00
53300;BME280;39187;48.476;8.310;2023-03-14T06:30:11;89413.69;;;4.36;100.00
53300;BME280;39187;48.476;8.310;2023-03-14T06:32:37;89406.44;;;4.40;100.00
53300;BME280;39187;48.476;8.310;2023-03-14T06:35:02;89414.91;;;4.48;100.00
53300;BME280;39187;48.476;8.310;2023-03-14T06:37:29;89401.38;;;4.33;100.00
53300;BME280;39187;48.476;8.310;2023-03-14T06:39:55;89404.22;;;4.38;100.00
53300;BME280;39187;48.476;8.310;2023-03-14T06:42:21;89406.44;;;4.40;100.00
53300;BME280;39187;48.476;8.310;2023-03-14T06:44:47;89403.81;;;4.40;100.00
53300;BME280;39187;48.476;8.310;2023-03-14T06:47:12;89403.63;;;4.47;100.00
53300;BME280;39187;48.476;8.310;2023-03-14T06:49:38;89395.81;;;4.56;100.00
53300;BME280;39187;48.476;8.310;2023-03-14T06:52:04;89388.44;;;4.51;100.00
53300;BME280;39187;48.476;8.310;2023-03-14T06:54:29;89382.84;;;4.49;100.00
53300;BME280;39187;48.476;8.310;2023-03-14T06:56:55;89384.25;;;4.54;100.00
53300;BME280;39187;48.476;8.310;2023-03-14T06:59:20;89379.38;;;4.52;100.00
53300;BME280;39187;48.476;8.310;2023-03-14T07:01:46;89382.34;;;4.79;100.00
53300;BME280;39187;48.476;8.310;2023-03-14T07:04:13;89376.34;;;4.79;100.00
53300;BME280;39187;48.476;8.310;2023-03-14T07:06:39;89369.59;;;4.91;100.00
53300;BME280;39187;48.476;8.310;2023-03-14T07:09:10;89368.22;;;4.86;100.00
53300;BME280;39187;48.476;8.310;2023-03-14T07:11:35;89371.81;;;4.92;100.00
53300;BME280;39187;48.476;8.310;2023-03-14T07:14:01;89362.84;;;4.90;100.00
53300;BME280;39187;48.476;8.310;2023-03-14T07:16:26;89366.31;;;5.12;100.00
53300;BME280;39187;48.476;8.310;2023-03-14T07:18:54;89363.03;;;5.08;100.00
53300;BME280;39187;48.476;8.310;2023-03-14T07:21:19;89360.53;;;5.04;100.00
53300;BME280;39187;48.476;8.310;2023-03-14T07:23:45;89353.44;;;5.01;100.00
53300;BME280;39187;48.476;8.310;2023-03-14T07:26:10;89350.03;;;5.26;100.00
53300;BME280;39187;48.476;8.310;2023-03-14T07:28:36;89352.16;;;5.18;100.00
53300;BME280;39187;48.476;8.310;2023-03-14T07:31:01;89347.53;;;5.10;100.00
53300;BME280;39187;48.476;8.310;2023-03-14T07:33:27;89348.47;;;5.16;100.00
53300;BME280;39187;48.476;8.310;2023-03-14T07:35:52;89361.13;;;5.08;100.00
53300;BME280;39187;48.476;8.310;2023-03-14T07:38:18;89351.66;;;4.98;100.00
53300;BME280;39187;48.476;8.310;2023-03-14T07:40:43;89356.25;;;5.19;100.00
53300;BME280;39187;48.476;8.310;2023-03-14T07:43:09;89355.00;;;5.24;100.00
53300;BME280;39187;48.476;8.310;2023-03-14T07:45:35;89361.31;;;5.27;100.00
53300;BME280;39187;48.476;8.310;2023-03-14T07:48:00;89334.19;;;5.26;100.00
53300;BME280;39187;48.476;8.310;2023-03-14T07:50:28;89360.13;;;5.40;100.00
53300;BME280;39187;48.476;8.310;2023-03-14T07:52:54;89363.28;;;5.48;100.00
53300;BME280;39187;48.476;8.310;2023-03-14T07:55:20;89344.63;;;5.64;100.00
53300;BME280;39187;48.476;8.310;2023-03-14T07:57:46;89349.00;;;5.58;100.00
53300;BME280;39187;48.476;8.310;2023-03-14T08:00:12;89358.06;;;5.70;100.00
53300;BME280;39187;48.476;8.310;2023-03-14T08:02:42;89367.88;;;5.69;100.00
53300;BME280;39187;48.476;8.310;2023-03-14T08:05:08;89384.53;;;5.66;100.00
53300;BME280;39187;48.476;8.310;2023-03-14T08:07:33;89380.13;;;5.63;100.00
53300;BME280;39187;48.476;8.310;2023-03-14T08:09:59;89393.66;;;5.52;100.00
53300;BME280;39187;48.476;8.310;2023-03-14T08:12:24;89394.94;;;5.48;100.00
53300;BME280;39187;48.476;8.310;2023-03-14T08:14:50;89378.69;;;5.49;100.00
53300;BME280;39187;48.476;8.310;2023-03-14T08:17:15;89387.50;;;5.68;100.00
53300;BME280;39187;48.476;8.310;2023-03-14T08:19:41;89375.59;;;5.51;100.00
53300;BME280;39187;48.476;8.310;2023-03-14T08:22:07;89390.50;;;5.45;100.00
53300;BME280;39187;48.476;8.310;2023-03-14T08:24:32;89372.34;;;5.47;100.00
53300;BME280;39187;48.476;8.310;2023-03-14T08:26:58;89394.09;;;5.38;100.00
53300;BME280;39187;48.476;8.310;2023-03-14T08:29:24;89404.16;;;5.31;100.00
53300;BME280;39187;48.476;8.310;2023-03-14T08:31:49;89407.28;;;5.38;100.00
53300;BME280;39187;48.476;8.310;2023-03-14T08:34:15;89411.13;;;5.37;100.00
53300;BME280;39187;48.476;8.310;2023-03-14T08:36:41;89416.38;;;5.37;100.00
53300;BME280;39187;48.476;8.310;2023-03-14T08:39:07;89399.50;;;5.35;100.00
53300;BME280;39187;48.476;8.310;2023-03-14T08:41:33;89423.22;;;5.47;100.00
53300;BME280;39187;48.476;8.310;2023-03-14T08:44:00;89428.53;;;5.22;100.00
53300;BME280;39187;48.476;8.310;2023-03-14T08:46:25;89433.78;;;5.35;100.00
53300;BME280;39187;48.476;8.310;2023-03-14T08:48:51;89436.09;;;5.33;100.00
53300;BME280;39187;48.476;8.310;2023-03-14T08:51:16;89457.22;;;5.07;100.00
53300;BME280;39187;48.476;8.310;2023-03-14T08:53:43;89443.41;;;5.03;100.00
53300;BME280;39187;48.476;8.310;2023-03-14T08:56:09;89434.97;;;4.96;100.00
53300;BME280;39187;48.476;8.310;2023-03-14T08:58:35;89463.53;;;4.97;100.00
53300;BME280;39187;48.476;8.310;2023-03-14T09:01:04;89461.25;;;5.12;100.00
53300;BME280;39187;48.476;8.310;2023-03-14T09:03:30;89459.72;;;4.73;100.00
53300;BME280;39187;48.476;8.310;2023-03-14T09:05:56;89454.13;;;4.83;100.00
53300;BME280;39187;48.476;8.310;2023-03-14T09:08:27;89458.13;;;4.75;100.00
53300;BME280;39187;48.476;8.310;2023-03-14T09:10:52;89443.72;;;5.05;100.00
53300;BME280;39187;48.476;8.310;2023-03-14T09:13:18;89470.91;;;4.90;100.00
53300;BME280;39187;48.476;8.310;2023-03-14T09:15:43;89470.50;;;4.91;100.00
53300;BME280;39187;48.476;8.310;2023-03-14T09:18:09;89465.31;;;5.00;100.00
53300;BME280;39187;48.476;8.310;2023-03-14T09:20:34;89466.28;;;5.06;100.00
53300;BME280;39187;48.476;8.310;2023-03-14T09:23:00;89463.97;;;5.08;100.00
53300;BME280;39187;48.476;8.310;2023-03-14T09:25:25;89470.72;;;5.22;100.00
53300;BME280;39187;48.476;8.310;2023-03-14T09:27:51;89458.06;;;5.04;100.00
53300;BME280;39187;48.476;8.310;2023-03-14T09:30:16;89456.59;;;5.03;100.00
53300;BME280;39187;48.476;8.310;2023-03-14T09:32:42;89473.34;;;5.09;100.00
53300;BME280;39187;48.476;8.310;2023-03-14T09:35:08;89471.03;;;4.99;100.00
53300;BME280;39187;48.476;8.310;2023-03-14T09:37:35;89477.34;;;5.01;100.00
53300;BME280;39187;48.476;8.310;2023-03-14T09:40:01;89492.88;;;5.12;100.00
53300;BME280;39187;48.476;8.310;2023-03-14T09:42:33;89465.53;;;5.06;100.00
53300;BME280;39187;48.476;8.310;2023-03-14T09:45:04;89481.16;;;5.38;100.00
53300;BME280;39187;48.476;8.310;2023-03-14T09:47:33;89483.28;;;5.18;100.00
53300;BME280;39187;48.476;8.310;2023-03-14T09:50:00;89484.44;;;5.30;100.00
53300;BME280;39187;48.476;8.310;2023-03-14T09:52:33;89482.09;;;5.19;100.00
53300;BME280;39187;48.476;8.310;2023-03-14T09:55:06;89484.63;;;5.48;100.00
53300;BME280;39187;48.476;8.310;2023-03-14T09:57:36;89477.56;;;5.32;100.00
53300;BME280;39187;48.476;8.310;2023-03-14T10:00:06;89490.25;;;5.37;100.00
53300;BME280;39187;48.476;8.310;2023-03-14T10:02:41;89487.59;;;5.12;100.00
53300;BME280;39187;48.476;8.310;2023-03-14T10:05:15;89489.81;;;5.26;100.00
53300;BME280;39187;48.476;8.310;2023-03-14T10:07:41;89482.41;;;4.96;100.00
53300;BME280;39187;48.476;8.310;2023-03-14T10:10:13;89498.56;;;5.23;100.00
53300;BME280;39187;48.476;8.310;2023-03-14T10:12:43;89494.84;;;4.95;100.00
53300;BME280;39187;48.476;8.310;2023-03-14T10:15:12;89496.97;;;5.00;100.00
53300;BME280;39187;48.476;8.310;2023-03-14T10:17:43;89508.16;;;5.04;100.00
53300;BME280;39187;48.476;8.310;2023-03-14T10:20:37;89502.16;;;5.04;100.00
53300;BME280;39187;48.476;8.310;2023-03-14T10:25:44;89516.59;;;5.12;100.00
53300;BME280;39187;48.476;8.310;2023-03-14T10:28:27;89503.47;;;4.83;100.00
53300;BME280;39187;48.476;8.310;2023-03-14T10:30:54;89522.38;;;4.94;100.00
53300;BME280;39187;48.476;8.310;2023-03-14T10:33:29;89520.78;;;4.84;100.00
53300;BME280;39187;48.476;8.310;2023-03-14T10:38:28;89525.66;;;4.98;100.00
53300;BME280;39187;48.476;8.310;2023-03-14T10:40:55;89525.75;;;4.95;100.00
53300;BME280;39187;48.476;8.310;2023-03-14T10:43:27;89538.38;;;4.87;100.00
53300;BME280;39187;48.476;8.310;2023-03-14T10:46:02;89534.47;;;4.79;100.00
53300;BME280;39187;48.476;8.310;2023-03-14T10:48:34;89540.56;;;4.76;100.00
53300;BME280;39187;48.476;8.310;2023-03-14T10:51:11;89544.81;;;4.86;100.00
53300;BME280;39187;48.476;8.310;2023-03-14T10:53:47;89553.31;;;4.77;100.00
53300;BME280;39187;48.476;8.310;2023-03-14T10:56:23;89545.53;;;4.87;100.00
53300;BME280;39187;48.476;8.310;2023-03-14T10:58:51;89547.00;;;4.75;100.00
53300;BME280;39187;48.476;8.310;2023-03-14T11:01:24;89558.59;;;4.77;100.00
53300;BME280;39187;48.476;8.310;2023-03-14T11:03:59;89557.25;;;4.86;100.00
53300;BME280;39187;48.476;8.310;2023-03-14T11:06:50;89562.06;;;4.74;100.00
53300;BME280;39187;48.476;8.310;2023-03-14T11:09:25;89566.41;;;4.81;100.00
53300;BME280;39187;48.476;8.310;2023-03-14T11:11:58;89567.03;;;4.72;100.00
53300;BME280;39187;48.476;8.310;2023-03-14T11:14:36;89569.38;;;4.83;100.00
53300;BME280;39187;48.476;8.310;2023-03-14T11:17:17;89579.72;;;4.90;100.00
53300;BME280;39187;48.476;8.310;2023-03-14T11:19:56;89587.47;;;4.81;100.00
53300;BME280;39187;48.476;8.310;2023-03-14T11:22:46;89600.22;;;4.99;100.00
53300;BME280;39187;48.476;8.310;2023-03-14T11:25:32;89612.13;;;5.03;100.00
53300;BME280;39187;48.476;8.310;2023-03-14T11:28:18;89624.53;;;4.90;100.00
53300;BME280;39187;48.476;8.310;2023-03-14T11:30:53;89641.56;;;4.73;100.00
53300;BME280;39187;48.476;8.310;2023-03-14T11:33:38;89634.16;;;4.52;100.00
53300;BME280;39187;48.476;8.310;2023-03-14T11:36:09;89660.25;;;4.30;100.00
53300;BME280;39187;48.476;8.310;2023-03-14T11:38:56;89669.16;;;4.36;100.00
53300;BME280;39187;48.476;8.310;2023-03-14T11:41:45;89647.09;;;4.14;100.00
53300;BME280;39187;48.476;8.310;2023-03-14T11:44:47;89660.19;;;4.01;100.00
53300;BME280;39187;48.476;8.310;2023-03-14T11:47:28;89677.31;;;4.09;100.00
53300;BME280;39187;48.476;8.310;2023-03-14T11:50:22;89679.81;;;3.80;100.00
53300;BME280;39187;48.476;8.310;2023-03-14T11:53:01;89691.19;;;3.93;100.00
53300;BME280;39187;48.476;8.310;2023-03-14T11:55:37;89684.03;;;3.94;100.00
53300;BME280;39187;48.476;8.310;2023-03-14T12:00:49;89696.81;;;3.76;100.00
53300;BME280;39187;48.476;8.310;2023-03-14T12:03:33;89701.50;;;3.84;100.00
53300;BME280;39187;48.476;8.310;2023-03-14T12:09:05;89695.41;;;3.71;100.00
53300;BME280;39187;48.476;8.310;2023-03-14T12:11:47;89706.75;;;3.68;100.00
53300;BME280;39187;48.476;8.310;2023-03-14T12:14:34;89695.56;;;3.64;100.00
53300;BME280;39187;48.476;8.310;2023-03-14T12:17:07;89711.38;;;3.80;100.00
53300;BME280;39187;48.476;8.310;2023-03-14T12:19:42;89709.50;;;3.81;100.00
53300;BME280;39187;48.476;8.310;2023-03-14T12:24:51;89736.94;;;3.80;100.00
53300;BME280;39187;48.476;8.310;2023-03-14T12:30:25;89752.00;;;3.59;100.00
53300;BME280;39187;48.476;8.310;2023-03-14T12:35:50;89749.56;;;3.29;100.00
53300;BME280;39187;48.476;8.310;2023-03-14T12:41:27;89756.53;;;3.19;100.00
53300;BME280;39187;48.476;8.310;2023-03-14T12:43:54;89769.59;;;3.23;100.00
53300;BME280;39187;48.476;8.310;2023-03-14T12:46:22;89752.88;;;3.33;100.00
53300;BME280;39187;48.476;8.310;2023-03-14T12:49:09;89764.47;;;3.36;100.00
53300;BME280;39187;48.476;8.310;2023-03-14T12:51:43;89778.84;;;3.08;100.00
53300;BME280;39187;48.476;8.310;2023-03-14T12:54:36;89780.69;;;3.11;100.00
53300;BME280;39187;48.476;8.310;2023-03-14T12:59:59;89804.91;;;3.22;100.00
53300;BME280;39187;48.476;8.310;2023-03-14T13:02:28;89822.34;;;3.12;100.00
53300;BME280;39187;48.476;8.310;2023-03-14T13:05:11;89776.47;;;3.17;100.00
53300;BME280;39187;48.476;8.310;2023-03-14T13:10:38;89814.09;;;3.34;100.00
53300;BME280;39187;48.476;8.310;2023-03-14T13:13:25;89829.75;;;3.41;100.00
53300;BME280;39187;48.476;8.310;2023-03-14T13:15:56;89836.44;;;3.45;100.00
53300;BME280;39187;48.476;8.310;2023-03-14T13:18:33;89855.66;;;3.42;100.00
53300;BME280;39187;48.476;8.310;2023-03-14T13:21:20;89865.25;;;3.29;100.00
53300;BME280;39187;48.476;8.310;2023-03-14T13:24:03;89886.84;;;3.40;100.00
53300;BME280;39187;48.476;8.310;2023-03-14T13:26:35;89892.97;;;3.34;100.00
53300;BME280;39187;48.476;8.310;2023-03-14T13:29:09;89889.25;;;3.54;100.00
53300;BME280;39187;48.476;8.310;2023-03-14T13:31:34;89900.81;;;3.60;100.00
53300;BME280;39187;48.476;8.310;2023-03-14T13:34:07;89912.41;;;3.63;100.00
53300;BME280;39187;48.476;8.310;2023-03-14T13:36:36;89913.16;;;3.63;100.00
53300;BME280;39187;48.476;8.310;2023-03-14T13:39:02;89934.50;;;3.69;99.94
53300;BME280;39187;48.476;8.310;2023-03-14T13:41:29;89930.44;;;3.65;98.88
53300;BME280;39187;48.476;8.310;2023-03-14T13:44:03;89937.41;;;3.51;99.91